Weather at Cynthiana-Harrison County Airport

Public forecast

Using degrees Fahrenheit for public forecast. Weather courtesy of forecast.io.

Closest aviation weather report (METAR) to Cynthiana-Harrison County Airport

Closest report is Mount Sterling Montgomery County Airport, 23.4 nm (43.3 km) SE. Retrieved 2021/07/30 19:15 UTC (12 minutes ago):

KIOB 301915Z AUTO 02006KT 10SM CLR 28/20 A3006 RMK AO2 PWINO

Closest aviation forecast (TAF) to Cynthiana-Harrison County Airport

Closest forecast is Blue Grass Airport, 25.0 nm (46.2 km) SW. Retrieved 2021/07/30 18:22 UTC (1 hour ago):

TAF KLEX 301720Z 3018/3118 36009KT P6SM FEW020 BKN040 FM310000 35008KT P6SM SCT250